Carleton, Michigan
Current Conditions -  °F | °C
As of 3:33 PM on Monday 22 Dec 2014 (Local Time) from KTTF Reporting Station
Overcast Overcast  
Wind Chill: 29°   Ceiling: 10000
Heat Index: 36°   Visibility: 10mi
Dew Point: 30°   Wind: 8mph
Humidity: 81%   Direction: 110°ESE
Pressure: 29.94"   Gusts: NA
Location:  42.06°N, 83.39°W
Report Text: KTTF 222033Z AUTO 11007KT 10SM OVC100 02/M01 A2994 RMK AO2
Loading
Personal Weather Stations






























Interactive Weather Map New forecast layout! Learn more

10-Day Weather Forecast

Advertisements
Track Severe Weather on mobile